EDDNEDQM

Guest
Details From EDDN - Nurnberg
To EDQM - Hof Plauen
Flight Number -
Tags decoded
Created
Modified
Stats Distance 61 nm / 114 km
Max Altitude 0 ft / 0 m
Waypoints 4
Social Downloads 0
Likes 0
Share VATSIM

Download

Looking for another format? Having issues loading an existing format? Contact us
Advertisement - Login to hide

Notes

Requested: EDDN RTB DN103 EDQM

Route

EDDN RTB DN103 EDQM

ID Type Via Altitude Latitude Longitude Leg Dist Tot Dist Heading (true) Name
O EDDN APT - 0 ft / 0 m 49.49874˚ 11.07758˚ - 0 nm - Nurnberg
RTB NDB - 0 ft / 0 m 49.48269˚ 11.25286˚ 6 nm 6 nm 98° / 98° ROTHENBACH NDB
DN103 FIX - 0 ft / 0 m 49.51547˚ 11.34641˚ 4 nm 11 nm 62° / 62° -
O EDQM APT - 0 ft / 0 m 50.28864˚ 11.85406˚ 50 nm 61 nm 23° / 23° Hof Plauen

Altitude Profile

Advertisement - Login to hide

EDDN

Details ICAO EDDN (NUE)
Name Nurnberg
Region Germany - Civil
Timezone Europe/Berlin (UTC+2.0)
Stats Elevation 1,045 ft / 319 m (AMSL)
Location 49.498744° 11.077580°
Runways 1
Magnetic Variation 3.073° E

METAR

EDDN 220620Z 10006KT 060V130 CAVOK 17/10 Q1013 NOSIG

Decode

TAF

TAF EDDN 220500Z 2206/2306 VRB03KT CAVOK BECMG 2206/2208 07006KT BECMG 2218/2220 VRB03KT

Decode

Departure Runways

ID Width Length Bearing (true) Bearing (mag) Surface Threshold Offset Overrun Length
10 148 ft / 45 m 8,819 ft / 2,688 m 98.60° 95.53° Asphalt 0 ft / 0 m 0 ft / 0 m
28 148 ft / 45 m 8,819 ft / 2,688 m 278.63° 275.56° Asphalt 0 ft / 0 m 0 ft / 0 m

EDQM

Details ICAO EDQM (HOQ)
Name Hof Plauen
Region Germany - Civil
Timezone Europe/Berlin (UTC+2.0)
Stats Elevation 1,960 ft / 597 m (AMSL)
Location 50.288643° 11.854065°
Runways 1
Magnetic Variation 3.302° E

METAR

EDQM 220620Z 13005KT CAVOK 15/07 Q1015

Decode

TAF

Not found

Destination Runways

ID Width Length Bearing (true) Bearing (mag) Surface Threshold Offset Overrun Length
09 98 ft / 30 m 4,842 ft / 1,476 m 86.76° 83.46° Asphalt 788 ft / 240 m 0 ft / 0 m
27 98 ft / 30 m 4,842 ft / 1,476 m 266.78° 263.48° Asphalt 197 ft / 60 m 0 ft / 0 m

Approach Navaids

Runway Type Ident Frequency Range Bearing (true) Bearing (mag) Slope Elevation
09 Localiser IHOE 110.70 MHz 18 nm / 33 km 86.79° 83.49° - 1,897 ft / 578 m (AMSL)
09 DME IHOE 110.70 MHz 18 nm / 33 km - - - 1,946 ft / 593 m (AMSL)
27 Localiser IHOW 110.70 MHz 18 nm / 33 km 266.77° 263.47° - 1,958 ft / 597 m (AMSL)
27 Glidescope IHOW 110.70 MHz 10 nm / 19 km 266.77° 263.47° 3.50° 1,897 ft / 578 m (AMSL)

Popular Alternatives